createdAt,value
2023-01-31T00:00:55.925Z,973.91
2023-01-31T00:01:55.874Z,973.93
2023-01-31T00:02:55.827Z,973.84
2023-01-31T00:03:55.904Z,973.89
2023-01-31T00:04:55.728Z,973.85
2023-01-31T00:05:55.682Z,973.90
2023-01-31T00:06:55.633Z,973.95
2023-01-31T00:07:55.596Z,973.92
2023-01-31T00:08:55.540Z,973.88
2023-01-31T00:09:55.515Z,973.96
2023-01-31T00:10:55.445Z,973.94
2023-01-31T00:11:55.396Z,973.96
2023-01-31T00:12:55.343Z,973.91
2023-01-31T00:13:55.309Z,973.91
2023-01-31T00:14:55.247Z,973.89
2023-01-31T00:15:55.262Z,973.88
2023-01-31T00:16:55.160Z,973.87
2023-01-31T00:17:55.105Z,973.85
2023-01-31T00:18:55.060Z,973.83
2023-01-31T00:19:55.050Z,973.83
2023-01-31T00:20:54.958Z,973.87
2023-01-31T00:21:54.915Z,973.83
2023-01-31T00:22:54.861Z,973.82
2023-01-31T00:23:54.818Z,973.75
2023-01-31T00:24:54.769Z,973.74
2023-01-31T00:25:54.739Z,973.76
2023-01-31T00:26:54.703Z,973.80
2023-01-31T00:27:54.622Z,973.73
2023-01-31T00:28:54.586Z,973.73
2023-01-31T00:29:54.540Z,973.69
2023-01-31T00:30:54.479Z,973.66
2023-01-31T00:31:54.515Z,973.65
2023-01-31T00:32:54.380Z,973.66
2023-01-31T00:33:54.340Z,973.65
2023-01-31T00:34:54.311Z,973.68
2023-01-31T00:35:54.233Z,973.70
2023-01-31T00:36:54.183Z,973.64
2023-01-31T00:37:54.139Z,973.68
2023-01-31T00:38:54.102Z,973.64
2023-01-31T00:39:54.052Z,973.71
2023-01-31T00:40:54.013Z,973.69
2023-01-31T00:41:53.945Z,973.70
2023-01-31T00:42:53.909Z,973.66
2023-01-31T00:43:53.851Z,973.65
2023-01-31T00:44:53.801Z,973.67
2023-01-31T00:45:53.757Z,973.66
2023-01-31T00:46:53.717Z,973.62
2023-01-31T00:47:53.655Z,973.59
2023-01-31T00:48:53.612Z,973.58
2023-01-31T00:49:53.566Z,973.57
2023-01-31T00:50:53.511Z,973.58
2023-01-31T00:51:53.498Z,973.59
2023-01-31T00:52:53.431Z,973.60
2023-01-31T00:53:53.366Z,973.57
2023-01-31T00:54:53.315Z,973.57
2023-01-31T00:55:53.269Z,973.56
2023-01-31T00:56:53.224Z,973.59
2023-01-31T00:57:53.187Z,973.59
2023-01-31T00:58:53.135Z,973.61
2023-01-31T00:59:53.074Z,973.61
2023-01-31T01:00:53.068Z,973.59
2023-01-31T01:01:53.010Z,973.61
2023-01-31T01:02:52.930Z,973.60
2023-01-31T01:03:52.906Z,973.58
2023-01-31T01:04:52.833Z,973.56
2023-01-31T01:05:52.786Z,973.56
2023-01-31T01:06:52.745Z,973.54
2023-01-31T01:07:52.691Z,973.53
2023-01-31T01:08:52.652Z,973.55
2023-01-31T01:09:52.625Z,973.54
2023-01-31T01:10:52.542Z,973.55
2023-01-31T01:11:52.504Z,973.58
2023-01-31T01:12:52.447Z,973.57
2023-01-31T01:13:52.401Z,973.54
2023-01-31T01:14:52.359Z,973.54
2023-01-31T01:15:52.320Z,973.54
2023-01-31T01:16:52.259Z,973.53
2023-01-31T01:17:52.206Z,973.55
2023-01-31T01:18:52.155Z,973.56
2023-01-31T01:19:52.123Z,973.57
2023-01-31T01:20:52.117Z,973.55
2023-01-31T01:21:52.015Z,973.58
2023-01-31T01:22:51.966Z,973.57
2023-01-31T01:23:51.925Z,973.60
2023-01-31T01:24:51.873Z,973.60
2023-01-31T01:25:51.830Z,973.64
2023-01-31T01:26:51.899Z,973.63
2023-01-31T01:27:51.725Z,973.64
2023-01-31T01:28:51.694Z,973.65
2023-01-31T01:29:51.634Z,973.66
2023-01-31T01:30:51.575Z,973.68
2023-01-31T01:31:51.622Z,973.72
2023-01-31T01:32:51.498Z,973.72
2023-01-31T01:33:51.435Z,973.71
2023-01-31T01:34:51.389Z,973.69
2023-01-31T01:35:51.337Z,973.69
2023-01-31T01:36:51.307Z,973.67
2023-01-31T01:37:51.238Z,973.72
2023-01-31T01:38:51.198Z,973.70
2023-01-31T01:39:51.147Z,973.71
2023-01-31T01:40:51.101Z,973.70
2023-01-31T01:41:51.052Z,973.69
2023-01-31T01:42:51.021Z,973.72
2023-01-31T01:43:50.963Z,973.69
2023-01-31T01:44:50.904Z,973.68
2023-01-31T01:45:50.886Z,973.68
2023-01-31T01:46:50.807Z,973.65
2023-01-31T01:47:50.762Z,973.59
2023-01-31T01:48:50.911Z,973.59
2023-01-31T01:49:50.663Z,973.54
2023-01-31T01:50:50.618Z,973.55
2023-01-31T01:51:50.579Z,973.60
2023-01-31T01:52:50.518Z,973.61
2023-01-31T01:53:50.489Z,973.58
2023-01-31T01:54:50.426Z,973.60
2023-01-31T01:55:50.371Z,973.63
2023-01-31T01:56:50.327Z,973.61
2023-01-31T01:57:50.275Z,973.62
2023-01-31T01:58:50.227Z,973.61
2023-01-31T01:59:50.199Z,973.63
2023-01-31T02:00:50.187Z,973.62
2023-01-31T02:01:50.118Z,973.59
2023-01-31T02:02:50.044Z,973.64
2023-01-31T02:03:50.024Z,973.61
2023-01-31T02:04:49.950Z,973.63
2023-01-31T02:05:49.889Z,973.63
2023-01-31T02:06:49.889Z,973.60
2023-01-31T02:07:49.795Z,973.62
2023-01-31T02:08:49.748Z,973.63
2023-01-31T02:09:49.693Z,973.62
2023-01-31T02:10:49.651Z,973.62
2023-01-31T02:11:49.597Z,973.67
2023-01-31T02:12:49.571Z,973.68
2023-01-31T02:13:49.503Z,973.71
2023-01-31T02:14:49.465Z,973.71
2023-01-31T02:15:49.410Z,973.71
2023-01-31T02:16:49.445Z,973.73
2023-01-31T02:17:49.312Z,973.71
2023-01-31T02:18:49.283Z,973.65
2023-01-31T02:19:49.216Z,973.63
2023-01-31T02:20:49.173Z,973.60
2023-01-31T02:21:49.123Z,973.59
2023-01-31T02:22:49.072Z,973.61
2023-01-31T02:23:49.026Z,973.62
2023-01-31T02:24:48.998Z,973.63
2023-01-31T02:25:48.931Z,973.58
2023-01-31T02:26:48.913Z,973.59
2023-01-31T02:27:48.842Z,973.60
2023-01-31T02:28:48.787Z,973.57
2023-01-31T02:29:48.731Z,973.52
2023-01-31T02:30:48.755Z,973.50
2023-01-31T02:31:48.669Z,973.49
2023-01-31T02:32:48.592Z,973.49
2023-01-31T02:33:48.545Z,973.51
2023-01-31T02:34:48.494Z,973.55
2023-01-31T02:35:48.469Z,973.60
2023-01-31T02:36:48.416Z,973.58
2023-01-31T02:37:48.350Z,973.64
2023-01-31T02:38:48.302Z,973.65
2023-01-31T02:39:48.252Z,973.67
2023-01-31T02:40:48.211Z,973.65
2023-01-31T02:41:48.177Z,973.63
2023-01-31T02:42:48.110Z,973.61
2023-01-31T02:43:48.057Z,973.57
2023-01-31T02:44:48.021Z,973.62
2023-01-31T02:45:47.996Z,973.61
2023-01-31T02:46:47.929Z,973.63
2023-01-31T02:47:47.898Z,973.62
2023-01-31T02:48:47.823Z,973.58
2023-01-31T02:49:47.774Z,973.55
2023-01-31T02:50:47.728Z,973.59
2023-01-31T02:51:47.677Z,973.63
2023-01-31T02:52:47.633Z,973.64
2023-01-31T02:53:47.611Z,973.67
2023-01-31T02:54:47.530Z,973.72
2023-01-31T02:55:47.484Z,973.71
2023-01-31T02:56:47.436Z,973.75
2023-01-31T02:57:47.423Z,973.73
2023-01-31T02:58:47.345Z,973.77
2023-01-31T02:59:47.328Z,973.77
2023-01-31T03:00:47.255Z,973.75
2023-01-31T03:01:47.267Z,973.67
2023-01-31T03:02:47.180Z,973.65
2023-01-31T03:03:47.097Z,973.63
2023-01-31T03:04:47.063Z,973.62
2023-01-31T03:05:47.016Z,973.61
2023-01-31T03:06:46.957Z,973.61
2023-01-31T03:07:46.910Z,973.65
2023-01-31T03:08:46.875Z,973.70
2023-01-31T03:09:46.813Z,973.66
2023-01-31T03:10:46.765Z,973.64
2023-01-31T03:11:46.716Z,973.67
2023-01-31T03:12:46.667Z,973.64
2023-01-31T03:13:46.619Z,973.62
2023-01-31T03:14:46.672Z,973.59
2023-01-31T03:15:46.523Z,973.56
2023-01-31T03:16:46.553Z,973.59
2023-01-31T03:17:46.431Z,973.62
2023-01-31T03:18:46.377Z,973.64
2023-01-31T03:19:46.331Z,973.69
2023-01-31T03:20:46.304Z,973.70
2023-01-31T03:21:46.241Z,973.75
2023-01-31T03:22:46.191Z,973.75
2023-01-31T03:23:46.139Z,973.70
2023-01-31T03:24:46.094Z,973.69
2023-01-31T03:25:46.059Z,973.73
2023-01-31T03:26:46.027Z,973.71
2023-01-31T03:27:45.941Z,973.72
2023-01-31T03:28:45.895Z,973.72
2023-01-31T03:29:45.875Z,973.79
2023-01-31T03:30:45.879Z,973.80
2023-01-31T03:31:45.879Z,973.86
2023-01-31T03:32:45.707Z,973.89
2023-01-31T03:33:45.657Z,973.90
2023-01-31T03:34:45.605Z,973.87
2023-01-31T03:35:45.575Z,973.88
2023-01-31T03:36:45.512Z,973.87
2023-01-31T03:37:45.464Z,973.89
2023-01-31T03:38:45.413Z,973.86
2023-01-31T03:39:45.365Z,973.87
2023-01-31T03:40:45.324Z,973.81
2023-01-31T03:41:45.292Z,973.84
2023-01-31T03:42:45.223Z,973.89
2023-01-31T03:43:45.175Z,973.86
2023-01-31T03:44:45.153Z,973.91
2023-01-31T03:45:45.074Z,973.95
2023-01-31T03:46:45.035Z,973.99
2023-01-31T03:47:45.005Z,974.03
2023-01-31T03:48:44.931Z,974.00
2023-01-31T03:49:44.890Z,974.01
2023-01-31T03:50:44.840Z,974.01
2023-01-31T03:51:44.790Z,973.99
2023-01-31T03:52:44.741Z,973.98
2023-01-31T03:53:44.702Z,973.99
2023-01-31T03:54:44.642Z,974.00
2023-01-31T03:55:44.599Z,974.03
2023-01-31T03:56:44.556Z,974.03
2023-01-31T03:57:44.501Z,973.99
2023-01-31T03:58:44.561Z,974.01
2023-01-31T03:59:44.406Z,974.02
2023-01-31T04:00:44.363Z,973.95
2023-01-31T04:01:44.384Z,973.94
2023-01-31T04:02:44.283Z,973.93
2023-01-31T04:03:44.213Z,973.94
2023-01-31T04:04:44.183Z,973.97
2023-01-31T04:05:44.115Z,973.98
2023-01-31T04:06:44.064Z,974.02
2023-01-31T04:07:44.016Z,973.98
2023-01-31T04:08:43.976Z,974.02
2023-01-31T04:09:43.921Z,973.98
2023-01-31T04:10:43.887Z,974.00
2023-01-31T04:11:43.918Z,974.02
2023-01-31T04:12:43.781Z,974.02
2023-01-31T04:13:43.736Z,974.05
2023-01-31T04:14:43.683Z,974.04
2023-01-31T04:15:43.637Z,974.06
2023-01-31T04:16:43.592Z,974.04
2023-01-31T04:17:43.554Z,974.08
2023-01-31T04:18:43.499Z,974.09
2023-01-31T04:19:43.447Z,974.05
2023-01-31T04:20:43.393Z,974.03
2023-01-31T04:21:43.348Z,974.02
2023-01-31T04:22:43.300Z,974.10
2023-01-31T04:23:43.270Z,974.00
2023-01-31T04:24:43.206Z,974.01
2023-01-31T04:25:43.156Z,973.99
2023-01-31T04:26:43.131Z,974.04
2023-01-31T04:27:43.058Z,974.02
2023-01-31T04:28:43.008Z,974.03
2023-01-31T04:29:42.975Z,973.96
2023-01-31T04:30:42.911Z,973.97
2023-01-31T04:31:42.975Z,973.96
2023-01-31T04:32:42.815Z,973.93
2023-01-31T04:33:42.764Z,973.92
2023-01-31T04:34:42.761Z,973.91
2023-01-31T04:35:42.677Z,973.91
2023-01-31T04:36:42.620Z,973.92
2023-01-31T04:37:42.583Z,973.91
2023-01-31T04:38:42.524Z,973.93
2023-01-31T04:39:42.506Z,973.98
2023-01-31T04:40:42.441Z,973.94
2023-01-31T04:41:42.383Z,973.93
2023-01-31T04:42:42.328Z,973.90
2023-01-31T04:43:42.304Z,973.88
2023-01-31T04:44:42.236Z,973.88
2023-01-31T04:45:42.219Z,973.85
2023-01-31T04:46:42.158Z,973.82
2023-01-31T04:47:42.105Z,973.86
2023-01-31T04:48:42.043Z,973.79
2023-01-31T04:49:41.993Z,973.83
2023-01-31T04:50:41.950Z,973.84
2023-01-31T04:51:41.911Z,973.93
2023-01-31T04:52:41.850Z,973.92
2023-01-31T04:53:41.804Z,973.93
2023-01-31T04:54:41.759Z,973.92
2023-01-31T04:55:41.705Z,973.97
2023-01-31T04:56:41.670Z,973.98
2023-01-31T04:57:41.637Z,973.97
2023-01-31T04:58:41.562Z,973.98
2023-01-31T04:59:41.508Z,974.01
2023-01-31T05:00:41.485Z,974.03
2023-01-31T05:01:41.410Z,974.04
2023-01-31T05:02:41.379Z,974.02
2023-01-31T05:03:41.334Z,974.02
2023-01-31T05:04:41.266Z,974.00
2023-01-31T05:05:41.228Z,973.98
2023-01-31T05:06:41.167Z,973.99
2023-01-31T05:07:41.124Z,974.03
2023-01-31T05:08:41.077Z,974.04
2023-01-31T05:09:41.045Z,974.03
2023-01-31T05:10:40.975Z,974.07
2023-01-31T05:11:40.924Z,974.05
2023-01-31T05:12:40.883Z,974.11
2023-01-31T05:13:40.829Z,974.11
2023-01-31T05:14:40.777Z,974.13
2023-01-31T05:15:40.751Z,974.14
2023-01-31T05:16:40.717Z,974.13
2023-01-31T05:17:40.629Z,974.12
2023-01-31T05:18:40.594Z,974.13
2023-01-31T05:19:40.535Z,974.16
2023-01-31T05:20:40.485Z,974.16
2023-01-31T05:21:40.451Z,974.22
2023-01-31T05:22:40.393Z,974.21
2023-01-31T05:23:40.345Z,974.26
2023-01-31T05:24:40.293Z,974.22
2023-01-31T05:25:40.244Z,974.24
2023-01-31T05:26:40.204Z,974.24
2023-01-31T05:27:40.157Z,974.27
2023-01-31T05:28:40.100Z,974.26
2023-01-31T05:29:40.052Z,974.28
2023-01-31T05:30:40.035Z,974.25
2023-01-31T05:31:39.987Z,974.25
2023-01-31T05:32:39.899Z,974.24
2023-01-31T05:33:39.878Z,974.26
2023-01-31T05:34:39.803Z,974.26
2023-01-31T05:35:39.752Z,974.26
2023-01-31T05:36:39.701Z,974.32
2023-01-31T05:37:39.660Z,974.28
2023-01-31T05:38:39.605Z,974.28
2023-01-31T05:39:39.576Z,974.32
2023-01-31T05:40:39.541Z,974.33
2023-01-31T05:41:39.460Z,974.34
2023-01-31T05:42:39.416Z,974.32
2023-01-31T05:43:39.362Z,974.31
2023-01-31T05:44:39.316Z,974.25
2023-01-31T05:45:39.306Z,974.29
2023-01-31T05:46:39.389Z,974.31
2023-01-31T05:47:39.163Z,974.24
2023-01-31T05:48:39.118Z,974.23
2023-01-31T05:49:39.067Z,974.22
2023-01-31T05:50:39.022Z,974.28
2023-01-31T05:51:38.970Z,974.26
2023-01-31T05:52:38.958Z,974.28
2023-01-31T05:53:38.871Z,974.32
2023-01-31T05:54:38.837Z,974.29
2023-01-31T05:55:38.779Z,974.24
2023-01-31T05:56:38.721Z,974.23
2023-01-31T05:57:38.681Z,974.21
2023-01-31T05:58:38.635Z,974.24
2023-01-31T05:59:38.586Z,974.24
2023-01-31T06:03:48.068Z,974.30
2023-01-31T06:04:47.689Z,974.29
2023-01-31T06:06:10.821Z,974.32
2023-01-31T06:06:47.587Z,974.33
2023-01-31T06:07:48.718Z,974.33
2023-01-31T06:08:47.695Z,974.35
2023-01-31T06:09:47.426Z,974.37
2023-01-31T06:10:48.535Z,974.41
2023-01-31T06:11:55.567Z,974.42
2023-01-31T06:12:48.336Z,974.43
2023-01-31T06:13:47.219Z,974.41
2023-01-31T06:14:47.325Z,974.45
2023-01-31T06:15:47.132Z,974.42
2023-01-31T06:16:47.136Z,974.46
2023-01-31T06:17:47.076Z,974.47
2023-01-31T06:18:48.173Z,974.47
2023-01-31T06:19:48.185Z,974.45
2023-01-31T06:20:46.893Z,974.41
2023-01-31T06:21:47.005Z,974.35
2023-01-31T06:22:46.802Z,974.38
2023-01-31T06:23:46.997Z,974.34
2023-01-31T06:24:46.853Z,974.38
2023-01-31T06:25:46.627Z,974.35
2023-01-31T06:26:46.659Z,974.38
2023-01-31T06:27:47.643Z,974.34
2023-01-31T06:28:46.511Z,974.37
2023-01-31T06:29:46.582Z,974.34
2023-01-31T06:30:46.541Z,974.40
2023-01-31T06:31:46.395Z,974.38
2023-01-31T06:32:47.490Z,974.40
2023-01-31T06:33:48.031Z,974.39
2023-01-31T06:34:47.274Z,974.38
2023-01-31T06:35:46.163Z,974.38
2023-01-31T06:36:49.505Z,974.36
2023-01-31T06:37:46.125Z,974.36
2023-01-31T06:38:47.101Z,974.35
2023-01-31T06:39:45.935Z,974.36
2023-01-31T06:40:47.126Z,974.31
2023-01-31T06:41:45.838Z,974.28
2023-01-31T06:42:45.955Z,974.27
2023-01-31T06:43:45.749Z,974.30
2023-01-31T06:44:45.916Z,974.26
2023-01-31T06:45:45.694Z,974.30
2023-01-31T06:46:46.742Z,974.27
2023-01-31T06:47:47.013Z,974.31
2023-01-31T06:48:47.582Z,974.33
2023-01-31T06:49:45.447Z,974.38
2023-01-31T06:50:45.547Z,974.39
2023-01-31T06:51:45.351Z,974.39
2023-01-31T06:52:45.562Z,974.38
2023-01-31T06:53:45.281Z,974.38
2023-01-31T06:54:46.207Z,974.43
2023-01-31T06:55:45.155Z,974.48
2023-01-31T06:56:45.286Z,974.52
2023-01-31T06:57:45.053Z,974.51
2023-01-31T06:58:45.101Z,974.54
2023-01-31T06:59:44.961Z,974.54
2023-01-31T07:00:44.903Z,974.59
2023-01-31T07:01:44.943Z,974.60
2023-01-31T07:02:45.128Z,974.60
2023-01-31T07:03:44.755Z,974.60
2023-01-31T07:04:44.988Z,974.62
2023-01-31T07:05:44.702Z,974.60
2023-01-31T07:06:44.601Z,974.64
2023-01-31T07:07:44.704Z,974.63
2023-01-31T07:08:44.536Z,974.62
2023-01-31T07:09:44.505Z,974.66
2023-01-31T07:10:44.407Z,974.66
2023-01-31T07:11:44.572Z,974.67
2023-01-31T07:12:44.303Z,974.69
2023-01-31T07:13:44.287Z,974.69
2023-01-31T07:14:44.391Z,974.72
2023-01-31T07:15:44.176Z,974.74
2023-01-31T07:16:44.200Z,974.73
2023-01-31T07:17:44.079Z,974.73
2023-01-31T07:18:44.007Z,974.80
2023-01-31T07:19:44.081Z,974.76
2023-01-31T07:20:44.023Z,974.74
2023-01-31T07:21:43.907Z,974.81
2023-01-31T07:22:43.988Z,974.89
2023-01-31T07:23:43.767Z,974.84
2023-01-31T07:24:43.719Z,974.86
2023-01-31T07:25:43.802Z,974.86
2023-01-31T07:26:43.659Z,974.88
2023-01-31T07:27:44.848Z,974.87
2023-01-31T07:28:43.518Z,974.88
2023-01-31T07:29:44.706Z,974.86
2023-01-31T07:30:43.477Z,974.89
2023-01-31T07:31:43.520Z,974.91
2023-01-31T07:32:43.319Z,974.90
2023-01-31T07:33:43.514Z,974.91
2023-01-31T07:34:43.224Z,974.90
2023-01-31T07:35:43.188Z,974.88
2023-01-31T07:36:43.135Z,974.85
2023-01-31T07:38:05.494Z,974.92
2023-01-31T07:38:43.028Z,974.94
2023-01-31T07:39:44.179Z,974.91
2023-01-31T07:40:42.934Z,974.88
2023-01-31T07:41:42.871Z,974.91
2023-01-31T07:42:50.841Z,974.92
2023-01-31T07:43:43.929Z,975.00
2023-01-31T07:45:13.210Z,975.01
2023-01-31T07:45:42.804Z,975.05
2023-01-31T07:46:42.629Z,975.03
2023-01-31T07:47:42.578Z,975.01
2023-01-31T07:48:42.543Z,974.96
2023-01-31T07:49:51.889Z,975.00
2023-01-31T07:50:42.427Z,975.01
2023-01-31T07:51:42.382Z,975.01
2023-01-31T07:52:42.345Z,975.00
2023-01-31T07:53:42.302Z,975.01
2023-01-31T07:54:42.267Z,974.96
2023-01-31T07:55:42.186Z,974.99
2023-01-31T07:56:42.134Z,975.02
2023-01-31T07:57:42.084Z,974.98
2023-01-31T07:58:42.044Z,974.95
2023-01-31T07:59:41.987Z,974.96
2023-01-31T08:00:42.001Z,974.95
2023-01-31T08:01:41.901Z,975.01
2023-01-31T08:02:41.839Z,975.00
2023-01-31T08:03:41.791Z,974.96
2023-01-31T08:04:41.770Z,974.98
2023-01-31T08:05:41.695Z,974.97
2023-01-31T08:06:41.646Z,974.99
2023-01-31T08:07:41.655Z,974.99
2023-01-31T08:08:41.544Z,975.00
2023-01-31T08:09:41.500Z,975.01
2023-01-31T08:10:41.451Z,975.03
2023-01-31T08:11:41.396Z,975.02
2023-01-31T08:12:41.356Z,975.04
2023-01-31T08:13:41.339Z,975.04
2023-01-31T08:14:41.252Z,974.97
2023-01-31T08:15:41.213Z,974.96
2023-01-31T08:16:41.335Z,974.99
2023-01-31T08:17:41.116Z,974.99
2023-01-31T08:18:41.068Z,975.01
2023-01-31T08:19:41.036Z,975.04
2023-01-31T08:20:40.964Z,975.04
2023-01-31T08:21:40.918Z,975.02
2023-01-31T08:22:40.866Z,975.00
2023-01-31T08:23:40.816Z,975.01
2023-01-31T08:24:40.770Z,975.03
2023-01-31T08:25:40.737Z,975.05
2023-01-31T08:26:40.695Z,975.04
2023-01-31T08:27:40.627Z,975.03
2023-01-31T08:28:40.576Z,974.98
2023-01-31T08:29:40.525Z,974.97
2023-01-31T08:30:40.496Z,974.99
2023-01-31T08:31:40.539Z,974.96
2023-01-31T08:32:40.392Z,974.97
2023-01-31T08:33:40.335Z,974.95
2023-01-31T08:34:40.299Z,974.96
2023-01-31T08:35:40.242Z,974.97
2023-01-31T08:36:40.230Z,974.96
2023-01-31T08:37:40.177Z,974.99
2023-01-31T08:38:40.178Z,975.00
2023-01-31T08:39:40.082Z,975.04
2023-01-31T08:40:39.995Z,975.03
2023-01-31T08:41:39.949Z,975.03
2023-01-31T08:42:39.902Z,975.04
2023-01-31T08:43:54.429Z,975.05
2023-01-31T08:44:39.807Z,975.10
2023-01-31T08:45:39.761Z,975.09
2023-01-31T08:46:39.761Z,975.13
2023-01-31T08:47:39.665Z,975.10
2023-01-31T08:48:39.621Z,975.13
2023-01-31T08:49:39.607Z,975.12
2023-01-31T08:50:40.579Z,975.14
2023-01-31T08:51:39.471Z,975.15
2023-01-31T08:52:39.421Z,975.11
2023-01-31T08:53:39.376Z,975.14
2023-01-31T08:54:39.331Z,975.15
2023-01-31T08:55:39.322Z,975.12
2023-01-31T08:56:39.227Z,975.18
2023-01-31T08:57:45.874Z,975.19
2023-01-31T08:58:39.141Z,975.24
2023-01-31T08:59:39.107Z,975.21
2023-01-31T09:00:39.044Z,975.24
2023-01-31T09:01:39.026Z,975.24
2023-01-31T09:02:38.980Z,975.25
2023-01-31T09:03:38.926Z,975.20
2023-01-31T09:04:38.851Z,975.24
2023-01-31T09:05:38.804Z,975.17
2023-01-31T09:06:38.756Z,975.18
2023-01-31T09:07:38.735Z,975.13
2023-01-31T09:08:38.668Z,975.14
2023-01-31T09:09:38.618Z,975.06
2023-01-31T09:10:38.577Z,975.07
2023-01-31T09:11:38.524Z,975.04
2023-01-31T09:12:38.475Z,975.08
2023-01-31T09:13:38.453Z,975.04
2023-01-31T09:14:38.385Z,975.06
2023-01-31T09:15:38.337Z,975.06
2023-01-31T09:16:38.331Z,975.07
2023-01-31T09:17:38.240Z,975.06
2023-01-31T09:18:38.754Z,975.02
2023-01-31T09:19:38.690Z,975.04
2023-01-31T09:20:38.520Z,975.04
2023-01-31T09:21:38.413Z,975.06
2023-01-31T09:22:38.382Z,975.04
2023-01-31T09:23:39.835Z,975.09
2023-01-31T09:24:38.178Z,975.07
2023-01-31T09:25:47.241Z,975.14
2023-01-31T09:26:38.146Z,975.07
2023-01-31T09:27:38.003Z,975.10
2023-01-31T09:28:37.898Z,975.11
2023-01-31T09:29:37.682Z,975.11
2023-01-31T09:30:37.665Z,975.08
2023-01-31T09:31:37.649Z,975.08
2023-01-31T09:32:37.547Z,975.09
2023-01-31T09:33:37.528Z,975.06
2023-01-31T09:34:37.482Z,975.07
2023-01-31T09:35:37.409Z,975.13
2023-01-31T09:36:37.363Z,975.12
2023-01-31T09:37:37.317Z,975.12
2023-01-31T09:38:37.297Z,975.13
2023-01-31T09:39:37.225Z,975.20
2023-01-31T09:40:37.182Z,975.18
2023-01-31T09:41:37.148Z,975.21
2023-01-31T09:42:37.132Z,975.19
2023-01-31T09:43:37.041Z,975.17
2023-01-31T09:44:36.993Z,975.22
2023-01-31T09:45:36.952Z,975.27
2023-01-31T09:46:37.289Z,975.30
2023-01-31T09:47:36.910Z,975.33
2023-01-31T09:48:36.966Z,975.29
2023-01-31T09:49:36.937Z,975.34
2023-01-31T09:50:36.758Z,975.40
2023-01-31T09:51:36.824Z,975.39
2023-01-31T09:52:36.630Z,975.42
2023-01-31T09:53:36.591Z,975.43
2023-01-31T09:54:36.595Z,975.44
2023-01-31T09:55:36.491Z,975.40
2023-01-31T09:56:36.818Z,975.42
2023-01-31T09:57:36.401Z,975.50
2023-01-31T09:58:36.904Z,975.49
2023-01-31T09:59:36.870Z,975.49
2023-01-31T10:00:36.616Z,975.48
2023-01-31T10:01:36.324Z,975.51
2023-01-31T10:02:36.546Z,975.49
2023-01-31T10:03:36.587Z,975.47
2023-01-31T10:04:36.402Z,975.51
2023-01-31T10:05:36.276Z,975.49
2023-01-31T10:06:36.272Z,975.51
2023-01-31T10:07:36.151Z,975.52
2023-01-31T10:08:36.118Z,975.51
2023-01-31T10:09:36.027Z,975.48
2023-01-31T10:10:35.812Z,975.48
2023-01-31T10:11:36.616Z,975.43
2023-01-31T10:12:35.723Z,975.45
2023-01-31T10:13:35.681Z,975.49
2023-01-31T10:14:35.667Z,975.45
2023-01-31T10:15:35.598Z,975.51
2023-01-31T10:16:35.553Z,975.48
2023-01-31T10:17:35.564Z,975.42
2023-01-31T10:18:35.532Z,975.46
2023-01-31T10:19:35.424Z,975.39
2023-01-31T10:20:35.380Z,975.42
2023-01-31T10:21:35.336Z,975.40
2023-01-31T10:22:35.291Z,975.38
2023-01-31T10:23:35.295Z,975.36
2023-01-31T10:24:35.223Z,975.37
2023-01-31T10:25:35.178Z,975.38
2023-01-31T10:26:35.160Z,975.38
2023-01-31T10:27:35.084Z,975.41
2023-01-31T10:28:35.054Z,975.34
2023-01-31T10:29:35.029Z,975.37
2023-01-31T10:30:34.994Z,975.31
2023-01-31T10:31:35.001Z,975.31
2023-01-31T10:32:34.898Z,975.29
2023-01-31T10:33:34.840Z,975.29
2023-01-31T10:34:34.863Z,975.31
2023-01-31T10:35:34.766Z,975.32
2023-01-31T10:36:34.734Z,975.33
2023-01-31T10:37:34.712Z,975.34
2023-01-31T10:38:34.655Z,975.36
2023-01-31T10:39:34.630Z,975.35
2023-01-31T10:40:34.566Z,975.38
2023-01-31T10:41:34.534Z,975.40
2023-01-31T10:42:34.494Z,975.46
2023-01-31T10:43:34.463Z,975.45
2023-01-31T10:44:34.410Z,975.42
2023-01-31T10:45:34.443Z,975.39
2023-01-31T10:46:34.336Z,975.39
2023-01-31T10:47:34.302Z,975.40
2023-01-31T10:48:34.256Z,975.38
2023-01-31T10:49:34.219Z,975.30
2023-01-31T10:50:34.187Z,975.31
2023-01-31T10:51:34.171Z,975.30
2023-01-31T10:52:34.113Z,975.36
2023-01-31T10:53:34.071Z,975.37
2023-01-31T10:54:34.038Z,975.35
2023-01-31T10:55:34.071Z,975.37
2023-01-31T10:56:33.957Z,975.40
2023-01-31T10:57:33.928Z,975.35
2023-01-31T10:58:33.879Z,975.31
2023-01-31T10:59:33.843Z,975.25
2023-01-31T11:00:33.866Z,975.20
2023-01-31T11:01:33.793Z,975.24
2023-01-31T11:02:33.788Z,975.26
2023-01-31T11:03:33.692Z,975.22
2023-01-31T11:04:33.667Z,975.23
2023-01-31T11:05:33.644Z,975.16
2023-01-31T11:06:33.584Z,975.13
2023-01-31T11:07:33.544Z,975.16
2023-01-31T11:08:33.531Z,975.13
2023-01-31T11:09:33.469Z,975.12
2023-01-31T11:10:33.458Z,975.09
2023-01-31T11:11:33.386Z,975.09
2023-01-31T11:12:33.347Z,975.04
2023-01-31T11:13:33.308Z,975.04
2023-01-31T11:14:33.272Z,975.00
2023-01-31T11:15:33.233Z,974.94
2023-01-31T11:16:33.267Z,974.93
2023-01-31T11:17:33.196Z,974.87
2023-01-31T11:18:33.115Z,974.89
2023-01-31T11:19:33.085Z,974.83
2023-01-31T11:20:33.042Z,974.87
2023-01-31T11:21:33.001Z,974.81
2023-01-31T11:22:32.960Z,974.83
2023-01-31T11:23:32.943Z,974.77
2023-01-31T11:24:32.882Z,974.78
2023-01-31T11:25:32.851Z,974.76
2023-01-31T11:26:32.821Z,974.74
2023-01-31T11:27:32.761Z,974.81
2023-01-31T11:28:32.720Z,974.78
2023-01-31T11:29:32.706Z,974.78
2023-01-31T11:30:32.745Z,974.71
2023-01-31T11:31:32.623Z,974.70
2023-01-31T11:32:32.573Z,974.67
2023-01-31T11:33:32.534Z,974.70
2023-01-31T11:34:32.488Z,974.67
2023-01-31T11:35:32.470Z,974.58
2023-01-31T11:36:32.416Z,974.54
2023-01-31T11:37:34.386Z,974.55
2023-01-31T11:38:32.329Z,974.52
2023-01-31T11:39:32.294Z,974.51
2023-01-31T11:40:32.259Z,974.52
2023-01-31T11:41:32.211Z,974.53
2023-01-31T11:42:32.185Z,974.55
2023-01-31T11:43:32.136Z,974.48
2023-01-31T11:44:32.087Z,974.47
2023-01-31T11:45:32.056Z,974.43
2023-01-31T11:46:32.115Z,974.43
2023-01-31T11:47:31.969Z,974.47
2023-01-31T11:48:31.953Z,974.50
2023-01-31T11:49:31.897Z,974.53
2023-01-31T11:50:31.853Z,974.55
2023-01-31T11:51:31.870Z,974.56
2023-01-31T11:52:31.787Z,974.50
2023-01-31T11:53:31.749Z,974.50
2023-01-31T11:54:31.730Z,974.52
2023-01-31T11:55:31.653Z,974.54
2023-01-31T11:56:31.613Z,974.50
2023-01-31T11:57:31.575Z,974.52
2023-01-31T11:58:31.543Z,974.51
2023-01-31T11:59:31.498Z,974.53
2023-01-31T12:00:31.475Z,974.52
2023-01-31T12:01:31.415Z,974.47
2023-01-31T12:02:31.429Z,974.50
2023-01-31T12:03:31.375Z,974.61
2023-01-31T12:04:31.299Z,974.65
2023-01-31T12:05:31.261Z,974.55
2023-01-31T12:06:31.229Z,974.57
2023-01-31T12:07:31.183Z,974.57
2023-01-31T12:08:31.187Z,974.58
2023-01-31T12:09:31.102Z,974.47
2023-01-31T12:10:31.065Z,974.42
2023-01-31T12:11:31.021Z,974.42
2023-01-31T12:12:30.988Z,974.43
2023-01-31T12:13:30.972Z,974.45
2023-01-31T12:14:30.899Z,974.49
2023-01-31T12:15:30.865Z,974.40
2023-01-31T12:16:30.889Z,974.36
2023-01-31T12:17:30.791Z,974.40
2023-01-31T12:18:30.756Z,974.38
2023-01-31T12:19:30.721Z,974.41
2023-01-31T12:20:30.678Z,974.45
2023-01-31T12:21:30.638Z,974.50
2023-01-31T12:22:30.610Z,974.46
2023-01-31T12:23:30.556Z,974.52
2023-01-31T12:24:30.516Z,974.55
2023-01-31T12:25:30.486Z,974.58
2023-01-31T12:26:30.491Z,974.57
2023-01-31T12:27:30.419Z,974.59
2023-01-31T12:28:30.389Z,974.62
2023-01-31T12:29:30.321Z,974.63
2023-01-31T12:30:30.319Z,974.63
2023-01-31T12:31:30.301Z,974.64